sensor_id;sensor_type;location;lat;lon;timestamp;pressure;altitude;pressure_sealevel;temperature;humidity
39449;BME280;25151;45.566;9.382;2023-03-01T00:01:03;100177.28;;;20.05;52.37
39449;BME280;25151;45.566;9.382;2023-03-01T00:04:04;100186.91;;;20.04;52.57
39449;BME280;25151;45.566;9.382;2023-03-01T00:07:07;100184.53;;;20.03;52.53
39449;BME280;25151;45.566;9.382;2023-03-01T00:10:09;100177.34;;;20.02;52.54
39449;BME280;25151;45.566;9.382;2023-03-01T00:13:10;100179.81;;;20.00;52.42
39449;BME280;25151;45.566;9.382;2023-03-01T00:16:14;100169.03;;;19.98;52.54
39449;BME280;25151;45.566;9.382;2023-03-01T00:19:17;100169.03;;;19.98;52.35
39449;BME280;25151;45.566;9.382;2023-03-01T00:22:18;100164.69;;;19.97;52.51
39449;BME280;25151;45.566;9.382;2023-03-01T00:25:19;100163.13;;;19.96;52.53
39449;BME280;25151;45.566;9.382;2023-03-01T00:28:20;100163.13;;;19.96;52.51
39449;BME280;25151;45.566;9.382;2023-03-01T00:31:23;100162.41;;;19.92;52.59
39449;BME280;25151;45.566;9.382;2023-03-01T00:34:24;100158.38;;;19.93;52.47
39449;BME280;25151;45.566;9.382;2023-03-01T00:37:25;100162.41;;;19.92;52.56
39449;BME280;25151;45.566;9.382;2023-03-01T00:40:26;100154.88;;;19.89;52.70
39449;BME280;25151;45.566;9.382;2023-03-01T00:43:27;100151.31;;;19.88;52.66
39449;BME280;25151;45.566;9.382;2023-03-01T00:46:28;100147.72;;;19.88;52.76
39449;BME280;25151;45.566;9.382;2023-03-01T00:49:30;100147.34;;;19.86;52.61
39449;BME280;25151;45.566;9.382;2023-03-01T00:52:31;100142.53;;;19.86;52.75
39449;BME280;25151;45.566;9.382;2023-03-01T00:55:32;100139.75;;;19.86;52.59
39449;BME280;25151;45.566;9.382;2023-03-01T00:58:34;100135.81;;;19.84;52.62
39449;BME280;25151;45.566;9.382;2023-03-01T01:01:35;100128.63;;;19.83;52.80
39449;BME280;25151;45.566;9.382;2023-03-01T01:04:36;100114.31;;;19.81;52.59
39449;BME280;25151;45.566;9.382;2023-03-01T01:07:37;100120.69;;;19.81;52.53
39449;BME280;25151;45.566;9.382;2023-03-01T01:10:38;100113.94;;;19.79;52.80
39449;BME280;25151;45.566;9.382;2023-03-01T01:13:39;100109.94;;;19.80;52.70
39449;BME280;25151;45.566;9.382;2023-03-01T01:16:40;100101.97;;;19.78;52.73
39449;BME280;25151;45.566;9.382;2023-03-01T01:19:41;100102.41;;;19.77;52.55
39449;BME280;25151;45.566;9.382;2023-03-01T01:22:41;100092.41;;;19.76;52.76
39449;BME280;25151;45.566;9.382;2023-03-01T01:25:42;100086.81;;;19.76;52.54
39449;BME280;25151;45.566;9.382;2023-03-01T01:28:43;100080.44;;;19.75;52.60
39449;BME280;25151;45.566;9.382;2023-03-01T01:31:44;100074.06;;;19.75;52.73
39449;BME280;25151;45.566;9.382;2023-03-01T01:34:45;100069.69;;;19.74;52.68
39449;BME280;25151;45.566;9.382;2023-03-01T01:37:46;100070.94;;;19.73;52.50
39449;BME280;25151;45.566;9.382;2023-03-01T01:40:49;100063.75;;;19.72;52.64
39449;BME280;25151;45.566;9.382;2023-03-01T01:44:11;100064.97;;;19.71;52.80
39449;BME280;25151;45.566;9.382;2023-03-01T01:47:17;100059.03;;;19.69;52.41
39449;BME280;25151;45.566;9.382;2023-03-01T01:50:19;100055.03;;;19.70;52.63
39449;BME280;25151;45.566;9.382;2023-03-01T01:53:20;100054.66;;;19.68;52.89
39449;BME280;25151;45.566;9.382;2023-03-01T01:56:24;100038.31;;;19.66;52.63
39449;BME280;25151;45.566;9.382;2023-03-01T01:59:28;100037.53;;;19.65;52.72
39449;BME280;25151;45.566;9.382;2023-03-01T02:02:31;100039.56;;;19.65;52.67
39449;BME280;25151;45.566;9.382;2023-03-01T02:05:55;100037.16;;;19.63;52.91
39449;BME280;25151;45.566;9.382;2023-03-01T02:08:59;100034.38;;;19.63;52.68
39449;BME280;25151;45.566;9.382;2023-03-01T02:12:03;100032.03;;;19.62;52.63
39449;BME280;25151;45.566;9.382;2023-03-01T02:15:05;100024.06;;;19.60;52.94
39449;BME280;25151;45.566;9.382;2023-03-01T02:18:07;100028.44;;;19.61;52.69
39449;BME280;25151;45.566;9.382;2023-03-01T02:24:57;100025.25;;;19.59;52.64
39449;BME280;25151;45.566;9.382;2023-03-01T02:28:19;100019.31;;;19.57;52.83
39449;BME280;25151;45.566;9.382;2023-03-01T02:31:20;100018.53;;;19.57;52.84
39449;BME280;25151;45.566;9.382;2023-03-01T02:34:40;100012.16;;;19.56;52.66
39449;BME280;25151;45.566;9.382;2023-03-01T02:37:42;100011.81;;;19.54;52.82
39449;BME280;25151;45.566;9.382;2023-03-01T02:40:44;100009.78;;;19.55;52.76
39449;BME280;25151;45.566;9.382;2023-03-01T02:43:45;100005.44;;;19.54;52.48
39449;BME280;25151;45.566;9.382;2023-03-01T02:46:49;99996.25;;;19.53;52.92
39449;BME280;25151;45.566;9.382;2023-03-01T02:49:50;99994.69;;;19.52;52.78
39449;BME280;25151;45.566;9.382;2023-03-01T02:53:17;99994.69;;;19.52;52.59
39449;BME280;25151;45.566;9.382;2023-03-01T02:56:22;99980.34;;;19.50;52.78
39449;BME280;25151;45.566;9.382;2023-03-01T02:59:27;99985.16;;;19.50;52.84
39449;BME280;25151;45.566;9.382;2023-03-01T03:02:30;99980.78;;;19.49;52.69
39449;BME280;25151;45.566;9.382;2023-03-01T03:05:37;99984.78;;;19.48;52.96
39449;BME280;25151;45.566;9.382;2023-03-01T03:08:38;99982.81;;;19.48;52.77
39449;BME280;25151;45.566;9.382;2023-03-01T03:11:39;99977.22;;;19.48;52.70
39449;BME280;25151;45.566;9.382;2023-03-01T03:14:41;99970.03;;;19.47;52.68
39449;BME280;25151;45.566;9.382;2023-03-01T03:17:42;99967.69;;;19.46;52.86
39449;BME280;25151;45.566;9.382;2023-03-01T03:20:44;99974.03;;;19.46;52.99
39449;BME280;25151;45.566;9.382;2023-03-01T03:23:45;99969.69;;;19.45;52.67
39449;BME280;25151;45.566;9.382;2023-03-01T03:26:45;99970.91;;;19.44;52.77
39449;BME280;25151;45.566;9.382;2023-03-01T03:29:46;99970.91;;;19.44;52.66
39449;BME280;25151;45.566;9.382;2023-03-01T03:32:47;99966.97;;;19.41;52.81
39449;BME280;25151;45.566;9.382;2023-03-01T03:35:53;99967.75;;;19.42;52.77
39449;BME280;25151;45.566;9.382;2023-03-01T03:38:54;99966.97;;;19.41;52.72
39449;BME280;25151;45.566;9.382;2023-03-01T03:41:55;99970.19;;;19.40;52.79
39449;BME280;25151;45.566;9.382;2023-03-01T03:44:56;99961.81;;;19.40;52.76
39449;BME280;25151;45.566;9.382;2023-03-01T03:47:56;99963.81;;;19.39;52.74
39449;BME280;25151;45.566;9.382;2023-03-01T03:50:57;99956.66;;;19.38;52.72
39449;BME280;25151;45.566;9.382;2023-03-01T03:53:58;99960.69;;;19.37;52.77
39449;BME280;25151;45.566;9.382;2023-03-01T03:56:59;99952.72;;;19.36;52.85
39449;BME280;25151;45.566;9.382;2023-03-01T04:00:00;99952.72;;;19.36;52.75
39449;BME280;25151;45.566;9.382;2023-03-01T04:03:01;99957.53;;;19.35;52.85
39449;BME280;25151;45.566;9.382;2023-03-01T04:06:02;99948.34;;;19.35;52.75
39449;BME280;25151;45.566;9.382;2023-03-01T04:09:05;99951.94;;;19.35;53.01
39449;BME280;25151;45.566;9.382;2023-03-01T04:12:06;99956.75;;;19.35;52.74
39449;BME280;25151;45.566;9.382;2023-03-01T04:15:07;99948.03;;;19.33;52.59
39449;BME280;25151;45.566;9.382;2023-03-01T04:18:15;99953.63;;;19.33;52.82
39449;BME280;25151;45.566;9.382;2023-03-01T04:21:17;99945.22;;;19.33;52.76
39449;BME280;25151;45.566;9.382;2023-03-01T04:24:18;99943.63;;;19.32;52.73
39449;BME280;25151;45.566;9.382;2023-03-01T04:27:19;99952.47;;;19.30;52.73
39449;BME280;25151;45.566;9.382;2023-03-01T04:30:20;99941.28;;;19.30;52.81
39449;BME280;25151;45.566;9.382;2023-03-01T04:33:25;99933.69;;;19.31;52.68
39449;BME280;25151;45.566;9.382;2023-03-01T04:36:28;99948.09;;;19.29;52.74
39449;BME280;25151;45.566;9.382;2023-03-01T04:39:29;99936.16;;;19.29;52.64
39449;BME280;25151;45.566;9.382;2023-03-01T04:42:30;99940.94;;;19.28;52.77
39449;BME280;25151;45.566;9.382;2023-03-01T04:45:32;99935.38;;;19.28;52.71
39449;BME280;25151;45.566;9.382;2023-03-01T04:48:36;99940.16;;;19.28;52.64
39449;BME280;25151;45.566;9.382;2023-03-01T04:51:37;99945.72;;;19.28;52.78
39449;BME280;25151;45.566;9.382;2023-03-01T04:54:39;99944.63;;;19.25;52.67
39449;BME280;25151;45.566;9.382;2023-03-01T04:57:40;99944.16;;;19.27;52.90
39449;BME280;25151;45.566;9.382;2023-03-01T05:00:40;99943.84;;;19.25;52.78
39449;BME280;25151;45.566;9.382;2023-03-01T05:03:51;99947.41;;;19.25;52.79
39449;BME280;25151;45.566;9.382;2023-03-01T05:06:52;99939.44;;;19.24;52.51
39449;BME280;25151;45.566;9.382;2023-03-01T05:09:54;99937.88;;;19.23;52.79
39449;BME280;25151;45.566;9.382;2023-03-01T05:12:56;99937.88;;;19.23;52.75
39449;BME280;25151;45.566;9.382;2023-03-01T05:16:00;99942.69;;;19.22;52.65
39449;BME280;25151;45.566;9.382;2023-03-01T05:19:03;99947.50;;;19.22;52.74
39449;BME280;25151;45.566;9.382;2023-03-01T05:22:11;99940.34;;;19.21;52.68
39449;BME280;25151;45.566;9.382;2023-03-01T05:25:12;99937.53;;;19.21;52.83
39449;BME280;25151;45.566;9.382;2023-03-01T05:28:15;99942.78;;;19.19;52.85
39449;BME280;25151;45.566;9.382;2023-03-01T05:31:19;99938.75;;;19.20;52.74
39449;BME280;25151;45.566;9.382;2023-03-01T05:34:27;99949.59;;;19.17;52.86
39449;BME280;25151;45.566;9.382;2023-03-01T05:37:28;99949.59;;;19.17;52.89
39449;BME280;25151;45.566;9.382;2023-03-01T05:40:30;99955.19;;;19.17;52.87
39449;BME280;25151;45.566;9.382;2023-03-01T05:43:33;99944.00;;;19.17;52.77
39449;BME280;25151;45.566;9.382;2023-03-01T05:46:34;99945.22;;;19.16;52.75
39449;BME280;25151;45.566;9.382;2023-03-01T05:49:35;99952.81;;;19.16;52.73
39449;BME280;25151;45.566;9.382;2023-03-01T05:52:37;99943.63;;;19.15;52.70
39449;BME280;25151;45.566;9.382;2023-03-01T05:55:39;99943.63;;;19.15;52.77
39449;BME280;25151;45.566;9.382;2023-03-01T05:58:40;99939.28;;;19.14;52.88
39449;BME280;25151;45.566;9.382;2023-03-01T06:01:41;99941.28;;;19.14;52.69
39449;BME280;25151;45.566;9.382;2023-03-01T06:04:41;99942.53;;;19.13;52.75
39449;BME280;25151;45.566;9.382;2023-03-01T06:07:43;99943.72;;;19.12;52.71
39449;BME280;25151;45.566;9.382;2023-03-01T06:10:46;99952.91;;;19.12;52.77
39449;BME280;25151;45.566;9.382;2023-03-01T06:13:47;99950.13;;;19.12;52.64
39449;BME280;25151;45.566;9.382;2023-03-01T06:16:48;99953.34;;;19.11;52.84
39449;BME280;25151;45.566;9.382;2023-03-01T06:19:49;99952.56;;;19.10;52.84
39449;BME280;25151;45.566;9.382;2023-03-01T06:22:50;99959.72;;;19.11;52.64
39449;BME280;25151;45.566;9.382;2023-03-01T06:25:52;99962.88;;;19.13;52.72
39449;BME280;25151;45.566;9.382;2023-03-01T06:28:53;99956.06;;;19.14;52.67
39449;BME280;25151;45.566;9.382;2023-03-01T06:31:54;99959.53;;;19.19;52.62
39449;BME280;25151;45.566;9.382;2023-03-01T06:34:55;99960.25;;;19.23;52.59
39449;BME280;25151;45.566;9.382;2023-03-01T06:37:57;99960.59;;;19.25;52.69
39449;BME280;25151;45.566;9.382;2023-03-01T06:40:59;99964.09;;;19.29;52.60
39449;BME280;25151;45.566;9.382;2023-03-01T06:44:01;99962.44;;;19.31;52.37
39449;BME280;25151;45.566;9.382;2023-03-01T06:47:03;99963.13;;;19.35;52.19
39449;BME280;25151;45.566;9.382;2023-03-01T06:50:05;99962.25;;;19.38;51.93
39449;BME280;25151;45.566;9.382;2023-03-01T06:53:06;99973.72;;;19.44;51.95
39449;BME280;25151;45.566;9.382;2023-03-01T06:56:07;99968.28;;;19.53;51.98
39449;BME280;25151;45.566;9.382;2023-03-01T06:59:09;99958.50;;;19.61;51.93
39449;BME280;25151;45.566;9.382;2023-03-01T07:02:13;99966.28;;;19.70;51.79
39449;BME280;25151;45.566;9.382;2023-03-01T07:05:16;99972.47;;;19.78;51.71
39449;BME280;25151;45.566;9.382;2023-03-01T07:08:18;99969.13;;;19.83;51.88
39449;BME280;25151;45.566;9.382;2023-03-01T07:11:20;99970.97;;;19.89;51.53
39449;BME280;25151;45.566;9.382;2023-03-01T07:14:23;99968.41;;;19.95;51.83
39449;BME280;25151;45.566;9.382;2023-03-01T07:17:29;99972.25;;;20.01;51.66
39449;BME280;25151;45.566;9.382;2023-03-01T07:20:32;99979.31;;;20.06;51.66
39449;BME280;25151;45.566;9.382;2023-03-01T07:23:34;99970.81;;;20.09;51.57
39449;BME280;25151;45.566;9.382;2023-03-01T07:26:35;99972.28;;;20.14;51.59
39449;BME280;25151;45.566;9.382;2023-03-01T07:29:37;99979.34;;;20.19;51.68
39449;BME280;25151;45.566;9.382;2023-03-01T07:32:39;99982.94;;;20.19;51.59
39449;BME280;25151;45.566;9.382;2023-03-01T07:35:41;99978.94;;;20.20;51.49
39449;BME280;25151;45.566;9.382;2023-03-01T07:38:44;99986.88;;;20.22;51.55
39449;BME280;25151;45.566;9.382;2023-03-01T07:41:45;99985.22;;;20.24;51.74
39449;BME280;25151;45.566;9.382;2023-03-01T07:44:46;99976.81;;;20.24;51.34
39449;BME280;25151;45.566;9.382;2023-03-01T07:47:49;99972.31;;;20.27;51.49
39449;BME280;25151;45.566;9.382;2023-03-01T07:50:52;99965.50;;;20.28;51.45
39449;BME280;25151;45.566;9.382;2023-03-01T07:53:54;99967.41;;;20.31;51.29
39449;BME280;25151;45.566;9.382;2023-03-01T07:56:56;99970.88;;;20.35;51.32
39449;BME280;25151;45.566;9.382;2023-03-01T08:00:00;99970.88;;;20.35;51.33
39449;BME280;25151;45.566;9.382;2023-03-01T08:03:03;99950.50;;;20.34;51.05
39449;BME280;25151;45.566;9.382;2023-03-01T08:06:07;99938.88;;;20.36;51.20
39449;BME280;25151;45.566;9.382;2023-03-01T08:09:09;99948.47;;;20.35;51.20
39449;BME280;25151;45.566;9.382;2023-03-01T08:12:11;99942.44;;;20.36;51.17
39449;BME280;25151;45.566;9.382;2023-03-01T08:15:13;99944.38;;;20.39;51.31
39449;BME280;25151;45.566;9.382;2023-03-01T08:18:15;99947.59;;;20.38;51.36
39449;BME280;25151;45.566;9.382;2023-03-01T08:21:21;99945.16;;;20.40;50.99
39449;BME280;25151;45.566;9.382;2023-03-01T08:24:22;99942.78;;;20.38;51.11
39449;BME280;25151;45.566;9.382;2023-03-01T08:27:24;99945.94;;;20.41;51.07
39449;BME280;25151;45.566;9.382;2023-03-01T08:30:26;99939.88;;;20.42;51.20
39449;BME280;25151;45.566;9.382;2023-03-01T08:33:28;99938.53;;;20.47;51.02
39449;BME280;25151;45.566;9.382;2023-03-01T08:36:36;99944.41;;;20.52;51.03
39449;BME280;25151;45.566;9.382;2023-03-01T08:39:38;99933.31;;;20.61;51.39
39449;BME280;25151;45.566;9.382;2023-03-01T08:42:41;99928.06;;;20.63;51.04
39449;BME280;25151;45.566;9.382;2023-03-01T08:45:48;99922.78;;;20.66;51.09
39449;BME280;25151;45.566;9.382;2023-03-01T08:49:08;99926.72;;;20.68;51.12
39449;BME280;25151;45.566;9.382;2023-03-01T08:52:15;99926.28;;;20.70;51.18
39449;BME280;25151;45.566;9.382;2023-03-01T08:55:18;99932.22;;;20.72;51.27
39449;BME280;25151;45.566;9.382;2023-03-01T08:58:20;99931.75;;;20.73;51.37
39449;BME280;25151;45.566;9.382;2023-03-01T09:01:22;99926.50;;;20.75;51.46
39449;BME280;25151;45.566;9.382;2023-03-01T09:04:24;99924.81;;;20.78;51.28
39449;BME280;25151;45.566;9.382;2023-03-01T09:07:26;99920.44;;;20.77;51.18
39449;BME280;25151;45.566;9.382;2023-03-01T09:10:30;99917.66;;;20.77;51.38
39449;BME280;25151;45.566;9.382;2023-03-01T09:13:32;99914.53;;;20.75;51.41
39449;BME280;25151;45.566;9.382;2023-03-01T09:16:34;99903.31;;;20.75;51.62
39449;BME280;25151;45.566;9.382;2023-03-01T09:19:37;99894.09;;;20.74;51.37
39449;BME280;25151;45.566;9.382;2023-03-01T09:22:40;99882.88;;;20.74;51.67
39449;BME280;25151;45.566;9.382;2023-03-01T09:25:43;99880.91;;;20.75;51.25
39449;BME280;25151;45.566;9.382;2023-03-01T09:28:46;99878.53;;;20.73;51.45
39449;BME280;25151;45.566;9.382;2023-03-01T09:31:48;99880.09;;;20.74;51.55
39449;BME280;25151;45.566;9.382;2023-03-01T09:34:50;99874.94;;;20.73;51.58
39449;BME280;25151;45.566;9.382;2023-03-01T09:38:06;99867.78;;;20.72;51.77
39449;BME280;25151;45.566;9.382;2023-03-01T09:47:45;99840.97;;;20.71;51.67
39449;BME280;25151;45.566;9.382;2023-03-01T09:50:46;99843.00;;;20.70;51.50
39449;BME280;25151;45.566;9.382;2023-03-01T09:53:47;99837.84;;;20.69;51.64
39449;BME280;25151;45.566;9.382;2023-03-01T10:00:42;99834.69;;;20.67;51.64
39449;BME280;25151;45.566;9.382;2023-03-01T10:03:54;99824.41;;;20.63;51.62
39449;BME280;25151;45.566;9.382;2023-03-01T10:13:50;99810.94;;;20.58;51.78
39449;BME280;25151;45.566;9.382;2023-03-01T10:17:02;99796.94;;;20.58;51.72
39449;BME280;25151;45.566;9.382;2023-03-01T10:20:25;99796.50;;;20.60;51.52
39449;BME280;25151;45.566;9.382;2023-03-01T10:23:30;99786.88;;;20.61;51.75
39449;BME280;25151;45.566;9.382;2023-03-01T10:26:47;99772.38;;;20.62;51.58
39449;BME280;25151;45.566;9.382;2023-03-01T10:32:59;99770.16;;;20.57;51.73
39449;BME280;25151;45.566;9.382;2023-03-01T10:35:59;99779.03;;;20.56;51.55
39449;BME280;25151;45.566;9.382;2023-03-01T10:39:03;99764.69;;;20.54;51.72
39449;BME280;25151;45.566;9.382;2023-03-01T10:42:29;99755.50;;;20.53;51.54
39449;BME280;25151;45.566;9.382;2023-03-01T10:48:32;99745.19;;;20.50;51.49
39449;BME280;25151;45.566;9.382;2023-03-01T10:51:33;99744.06;;;20.48;51.64
39449;BME280;25151;45.566;9.382;2023-03-01T10:54:34;99739.66;;;20.47;51.58
39449;BME280;25151;45.566;9.382;2023-03-01T10:57:38;99738.09;;;20.46;51.92
39449;BME280;25151;45.566;9.382;2023-03-01T11:00:58;99721.75;;;20.44;51.95
39449;BME280;25151;45.566;9.382;2023-03-01T11:04:12;99725.81;;;20.43;51.97
39449;BME280;25151;45.566;9.382;2023-03-01T11:07:13;99714.59;;;20.43;51.96
39449;BME280;25151;45.566;9.382;2023-03-01T11:10:27;99713.38;;;20.44;51.99
39449;BME280;25151;45.566;9.382;2023-03-01T11:13:28;99702.47;;;20.46;52.14
39449;BME280;25151;45.566;9.382;2023-03-01T11:16:36;99690.50;;;20.46;52.05
39449;BME280;25151;45.566;9.382;2023-03-01T11:19:37;99687.69;;;20.46;52.01
39449;BME280;25151;45.566;9.382;2023-03-01T11:23:04;99679.28;;;20.46;52.33
39449;BME280;25151;45.566;9.382;2023-03-01T11:26:07;99675.41;;;20.43;52.46
39449;BME280;25151;45.566;9.382;2023-03-01T11:39:47;99653.22;;;20.36;53.03
39449;BME280;25151;45.566;9.382;2023-03-01T11:52:35;99658.94;;;20.32;52.87
39449;BME280;25151;45.566;9.382;2023-03-01T11:59:26;99634.31;;;20.27;53.00
39449;BME280;25151;45.566;9.382;2023-03-01T12:06:23;99637.56;;;20.26;52.99
39449;BME280;25151;45.566;9.382;2023-03-01T12:09:52;99627.13;;;20.26;52.77
39449;BME280;25151;45.566;9.382;2023-03-01T12:23:50;99614.50;;;20.22;52.84
39449;BME280;25151;45.566;9.382;2023-03-01T12:27:08;99608.91;;;20.22;52.92
39449;BME280;25151;45.566;9.382;2023-03-01T12:30:26;99603.75;;;20.20;52.79
39449;BME280;25151;45.566;9.382;2023-03-01T12:33:49;99598.59;;;20.19;52.75
39449;BME280;25151;45.566;9.382;2023-03-01T12:49:56;99598.06;;;20.11;52.88
39449;BME280;25151;45.566;9.382;2023-03-01T12:52:58;99608.47;;;20.10;52.85
39449;BME280;25151;45.566;9.382;2023-03-01T12:56:02;99599.75;;;20.08;52.78
39449;BME280;25151;45.566;9.382;2023-03-01T13:02:42;99607.81;;;20.06;52.82
39449;BME280;25151;45.566;9.382;2023-03-01T13:12:01;99613.09;;;20.04;52.77
39449;BME280;25151;45.566;9.382;2023-03-01T13:15:02;99608.69;;;20.03;53.01
39449;BME280;25151;45.566;9.382;2023-03-01T13:18:26;99613.97;;;20.01;53.08
39449;BME280;25151;45.566;9.382;2023-03-01T13:21:30;99616.78;;;20.01;52.99
39449;BME280;25151;45.566;9.382;2023-03-01T13:24:41;99620.81;;;20.00;52.80
39449;BME280;25151;45.566;9.382;2023-03-01T13:27:42;99624.84;;;19.99;52.80
39449;BME280;25151;45.566;9.382;2023-03-01T13:30:43;99630.88;;;19.98;52.82
39449;BME280;25151;45.566;9.382;2023-03-01T13:36:52;99626.97;;;19.95;52.89
39449;BME280;25151;45.566;9.382;2023-03-01T13:39:53;99636.16;;;19.96;52.84
39449;BME280;25151;45.566;9.382;2023-03-01T13:42:55;99628.19;;;19.94;52.95
39449;BME280;25151;45.566;9.382;2023-03-01T13:45:57;99626.66;;;19.93;52.90
39449;BME280;25151;45.566;9.382;2023-03-01T13:48:58;99627.53;;;19.90;52.93
39449;BME280;25151;45.566;9.382;2023-03-01T13:52:01;99635.47;;;19.92;53.10
39449;BME280;25151;45.566;9.382;2023-03-01T13:58:29;99633.81;;;19.94;53.10
39449;BME280;25151;45.566;9.382;2023-03-01T14:01:34;99640.63;;;19.93;53.00
39449;BME280;25151;45.566;9.382;2023-03-01T14:04:37;99635.47;;;19.92;52.83
39449;BME280;25151;45.566;9.382;2023-03-01T14:07:40;99637.84;;;19.93;52.95
39449;BME280;25151;45.566;9.382;2023-03-01T14:10:58;99648.69;;;19.91;52.86
39449;BME280;25151;45.566;9.382;2023-03-01T14:20:43;99649.03;;;19.93;52.69
39449;BME280;25151;45.566;9.382;2023-03-01T14:23:53;99653.06;;;19.92;52.89
39449;BME280;25151;45.566;9.382;2023-03-01T14:27:02;99646.66;;;19.92;52.73
39449;BME280;25151;45.566;9.382;2023-03-01T14:30:20;99647.47;;;19.92;52.90
39449;BME280;25151;45.566;9.382;2023-03-01T14:33:26;99636.28;;;19.92;52.97
39449;BME280;25151;45.566;9.382;2023-03-01T14:36:30;99634.69;;;19.91;52.81
39449;BME280;25151;45.566;9.382;2023-03-01T14:39:32;99638.72;;;19.90;52.97
39449;BME280;25151;45.566;9.382;2023-03-01T14:42:35;99632.34;;;19.89;52.89
39449;BME280;25151;45.566;9.382;2023-03-01T14:45:37;99629.56;;;19.89;53.08
39449;BME280;25151;45.566;9.382;2023-03-01T14:48:39;99628.78;;;19.89;53.01
39449;BME280;25151;45.566;9.382;2023-03-01T14:51:42;99631.56;;;19.89;53.02
39449;BME280;25151;45.566;9.382;2023-03-01T14:54:47;99637.16;;;19.89;53.21
39449;BME280;25151;45.566;9.382;2023-03-01T14:57:50;99645.56;;;19.89;53.13
39449;BME280;25151;45.566;9.382;2023-03-01T15:00:59;99636.38;;;19.88;53.13
39449;BME280;25151;45.566;9.382;2023-03-01T15:04:02;99636.03;;;19.86;53.08
39449;BME280;25151;45.566;9.382;2023-03-01T15:07:04;99639.63;;;19.87;53.00
39449;BME280;25151;45.566;9.382;2023-03-01T15:10:07;99638.06;;;19.86;53.22
39449;BME280;25151;45.566;9.382;2023-03-01T15:13:23;99643.66;;;19.86;53.28
39449;BME280;25151;45.566;9.382;2023-03-01T15:16:27;99643.66;;;19.86;53.23
39449;BME280;25151;45.566;9.382;2023-03-01T15:19:29;99646.91;;;19.84;53.13
39449;BME280;25151;45.566;9.382;2023-03-01T15:22:32;99645.31;;;19.83;53.43
39449;BME280;25151;45.566;9.382;2023-03-01T15:25:34;99646.13;;;19.84;53.36
39449;BME280;25151;45.566;9.382;2023-03-01T15:28:39;99653.41;;;19.81;53.29
39449;BME280;25151;45.566;9.382;2023-03-01T15:31:43;99652.63;;;19.81;53.44
39449;BME280;25151;45.566;9.382;2023-03-01T15:34:43;99654.97;;;19.82;53.31
39449;BME280;25151;45.566;9.382;2023-03-01T15:37:46;99648.25;;;19.80;53.29
39449;BME280;25151;45.566;9.382;2023-03-01T15:40:51;99649.47;;;19.79;53.38
39449;BME280;25151;45.566;9.382;2023-03-01T15:43:53;99652.28;;;19.79;53.11
39449;BME280;25151;45.566;9.382;2023-03-01T15:46:57;99646.66;;;19.79;53.27
39449;BME280;25151;45.566;9.382;2023-03-01T15:50:00;99652.63;;;19.81;53.39
39449;BME280;25151;45.566;9.382;2023-03-01T15:53:06;99646.25;;;19.80;53.29
39449;BME280;25151;45.566;9.382;2023-03-01T15:56:16;99654.19;;;19.82;53.20
39449;BME280;25151;45.566;9.382;2023-03-01T15:59:19;99659.78;;;19.82;53.54
39449;BME280;25151;45.566;9.382;2023-03-01T16:02:27;99657.88;;;19.79;53.37
39449;BME280;25151;45.566;9.382;2023-03-01T16:05:35;99669.06;;;19.79;53.55
39449;BME280;25151;45.566;9.382;2023-03-01T16:08:39;99677.44;;;19.79;53.65
39449;BME280;25151;45.566;9.382;2023-03-01T16:11:43;99672.31;;;19.77;53.75
39449;BME280;25151;45.566;9.382;2023-03-01T16:14:47;99687.09;;;19.78;53.70
39449;BME280;25151;45.566;9.382;2023-03-01T16:17:52;99684.28;;;19.78;53.64
39449;BME280;25151;45.566;9.382;2023-03-01T16:20:55;99683.03;;;19.79;53.57
39449;BME280;25151;45.566;9.382;2023-03-01T16:23:58;99687.09;;;19.78;53.72
39449;BME280;25151;45.566;9.382;2023-03-01T16:27:00;99691.91;;;19.77;53.67
39449;BME280;25151;45.566;9.382;2023-03-01T16:30:03;99693.56;;;19.75;53.75
39449;BME280;25151;45.566;9.382;2023-03-01T16:33:07;99699.94;;;19.75;53.57
39449;BME280;25151;45.566;9.382;2023-03-01T16:36:12;99710.34;;;19.75;53.57
39449;BME280;25151;45.566;9.382;2023-03-01T16:39:15;99718.75;;;19.75;53.56
39449;BME280;25151;45.566;9.382;2023-03-01T16:42:18;99710.34;;;19.75;53.68
39449;BME280;25151;45.566;9.382;2023-03-01T16:45:25;99719.97;;;19.74;53.64
39449;BME280;25151;45.566;9.382;2023-03-01T16:48:28;99716.41;;;19.73;53.63
39449;BME280;25151;45.566;9.382;2023-03-01T16:51:31;99724.00;;;19.73;53.61
39449;BME280;25151;45.566;9.382;2023-03-01T16:54:37;99725.56;;;19.74;53.79
39449;BME280;25151;45.566;9.382;2023-03-01T16:57:42;99743.91;;;19.75;53.90
39449;BME280;25151;45.566;9.382;2023-03-01T17:00:45;99749.53;;;19.75;53.77
39449;BME280;25151;45.566;9.382;2023-03-01T17:03:47;99754.34;;;19.74;53.96
39449;BME280;25151;45.566;9.382;2023-03-01T17:06:53;99758.69;;;19.75;53.86
39449;BME280;25151;45.566;9.382;2023-03-01T17:09:59;99761.50;;;19.75;54.08
39449;BME280;25151;45.566;9.382;2023-03-01T17:13:01;99766.31;;;19.75;54.18
39449;BME280;25151;45.566;9.382;2023-03-01T17:16:09;99777.50;;;19.75;53.71
39449;BME280;25151;45.566;9.382;2023-03-01T17:19:11;99781.84;;;19.76;53.89
39449;BME280;25151;45.566;9.382;2023-03-01T17:22:15;99783.88;;;19.75;53.97
39449;BME280;25151;45.566;9.382;2023-03-01T17:25:20;99783.09;;;19.75;54.08
39449;BME280;25151;45.566;9.382;2023-03-01T17:28:27;99795.53;;;19.74;54.08
39449;BME280;25151;45.566;9.382;2023-03-01T17:31:33;99788.69;;;19.75;53.97
39449;BME280;25151;45.566;9.382;2023-03-01T17:34:35;99798.66;;;19.76;54.08
39449;BME280;25151;45.566;9.382;2023-03-01T17:37:39;99799.88;;;19.75;54.17
39449;BME280;25151;45.566;9.382;2023-03-01T17:40:49;99808.63;;;19.77;53.95
39449;BME280;25151;45.566;9.382;2023-03-01T17:43:51;99816.25;;;19.76;53.97
39449;BME280;25151;45.566;9.382;2023-03-01T17:46:53;99819.81;;;19.77;54.20
39449;BME280;25151;45.566;9.382;2023-03-01T17:49:55;99829.78;;;19.78;54.28
39449;BME280;25151;45.566;9.382;2023-03-01T17:52:58;99828.22;;;19.77;54.28